Time;durP1;ratioP1;P1;durP2;ratioP2;P2;SDS_P1;SDS_P2;PMS_P1;PMS_P2;Temp;Humidity;BMP_temperature;BMP_pressure;BME280_temperature;BME280_humidity;BME280_pressure;Samples;Min_cycle;Max_cycle;Signal;HPM_P1;HPM_P2
2021/08/10 00:01:20;;;;;;;20.48;15.18;;;;;;;22.91;88.57;99507.84;5089436;28;20040;-63
2021/08/10 00:03:46;;;;;;;20.42;15.35;;;;;;;22.94;89.21;99516.34;5089195;28;20040;-63
2021/08/10 00:06:12;;;;;;;21.73;15.43;;;;;;;22.91;89.94;99524.59;5089369;28;20174;-63
2021/08/10 00:08:37;;;;;;;20.88;15.80;;;;;;;22.75;90.56;99506.53;5088668;28;20047;-63
2021/08/10 00:11:03;;;;;;;21.23;16.38;;;;;;;22.81;91.14;99518.44;5089880;28;20109;-63
2021/08/10 00:13:29;;;;;;;22.45;15.98;;;;;;;22.78;91.41;99526.63;5087950;28;20048;-63
2021/08/10 00:15:55;;;;;;;21.83;17.08;;;;;;;22.68;91.75;99512.47;5087361;28;20040;-64
2021/08/10 00:18:21;;;;;;;23.92;16.83;;;;;;;22.61;92.07;99512.16;5088924;28;20486;-63
2021/08/10 00:20:47;;;;;;;20.65;15.40;;;;;;;22.72;92.29;99527.16;5088483;28;20043;-63
2021/08/10 00:23:13;;;;;;;20.00;16.30;;;;;;;22.71;92.67;99521.03;5088259;28;20063;-64
2021/08/10 00:25:39;;;;;;;25.27;17.20;;;;;;;22.67;93.02;99524.88;5066415;28;20141;-64
2021/08/10 00:28:09;;;;;;;22.73;16.65;;;;;;;22.63;93.45;99527.94;5085350;28;20036;-63
2021/08/10 00:30:39;;;;;;;18.88;15.85;;;;;;;22.62;94.05;99520.94;5092425;28;20533;-62
2021/08/10 00:33:06;;;;;;;24.08;15.85;;;;;;;22.59;94.43;99519.41;5092300;28;20040;-64
2021/08/10 00:35:32;;;;;;;20.05;16.05;;;;;;;22.59;94.42;99521.22;5091757;28;20039;-64
2021/08/10 00:37:58;;;;;;;19.63;15.65;;;;;;;22.61;94.84;99514.00;5091866;28;20059;-64
2021/08/10 00:40:25;;;;;;;20.85;15.23;;;;;;;22.57;94.89;99500.16;5075610;28;20097;-66
2021/08/10 00:42:53;;;;;;;19.03;14.97;;;;;;;22.61;95.01;99509.50;5091873;28;20097;-64
2021/08/10 00:45:19;;;;;;;19.75;15.68;;;;;;;22.58;95.51;99507.13;5070961;28;20044;-62
2021/08/10 00:47:45;;;;;;;18.27;14.40;;;;;;;22.58;95.50;99506.28;5108057;28;20523;-64
2021/08/10 00:50:12;;;;;;;22.20;15.07;;;;;;;22.60;95.25;99507.00;5074718;28;20048;-64
2021/08/10 00:52:47;;;;;;;16.85;14.45;;;;;;;22.62;95.04;99513.84;5089487;28;20114;-63
2021/08/10 00:55:14;;;;;;;25.60;14.80;;;;;;;22.66;94.82;99514.44;5091538;28;20046;-64
2021/08/10 00:57:41;;;;;;;21.55;13.65;;;;;;;22.67;94.58;99513.44;5091875;28;20066;-64
2021/08/10 01:00:07;;;;;;;26.00;15.10;;;;;;;22.69;94.68;99509.69;5093181;28;20067;-64
2021/08/10 01:02:35;;;;;;;22.98;14.73;;;;;;;22.72;94.75;99505.94;5091249;28;20052;-64
2021/08/10 01:05:03;;;;;;;26.58;14.70;;;;;;;22.72;94.43;99504.16;5091514;28;20109;-63
2021/08/10 01:07:32;;;;;;;26.23;13.55;;;;;;;22.76;94.13;99502.09;5074746;28;20093;-64
2021/08/10 01:10:08;;;;;;;;;;;;;;;22.77;93.75;99503.75;5093508;28;20093;-63
2021/08/10 01:12:54;;;;;;;27.20;15.70;;;;;;;22.78;93.25;99500.13;5075021;28;19919;-64
2021/08/10 01:15:24;;;;;;;22.10;14.48;;;;;;;22.73;93.06;99500.53;5088964;28;20040;-63
2021/08/10 01:18:04;;;;;;;24.30;14.15;;;;;;;22.78;93.31;99503.63;5071148;28;20048;-64
2021/08/10 01:21:01;;;;;;;19.73;14.23;;;;;;;22.80;93.63;99503.50;5070895;28;20043;-64
2021/08/10 01:23:31;;;;;;;23.83;14.35;;;;;;;22.79;93.59;99510.59;5071676;28;20036;-64
2021/08/10 01:26:17;;;;;;;22.27;14.23;;;;;;;22.78;93.57;99500.13;5074911;28;20769;-64
2021/08/10 01:29:00;;;;;;;22.73;14.13;;;;;;;22.79;93.53;99505.28;5075137;28;20149;-64
2021/08/10 01:31:37;;;;;;;18.77;13.45;;;;;;;22.78;93.85;99505.41;5091057;28;20044;-63
2021/08/10 01:34:31;;;;;;;27.63;14.57;;;;;;;22.77;93.91;99503.75;5074863;28;20066;-63
2021/08/10 01:37:08;;;;;;;21.70;14.10;;;;;;;22.76;94.02;99496.78;5054594;28;20419;-65
2021/08/10 01:39:37;;;;;;;19.70;14.27;;;;;;;22.71;94.22;99494.53;5090199;28;20044;-63
2021/08/10 01:42:05;;;;;;;21.17;14.00;;;;;;;22.72;94.30;99504.16;5074852;28;20036;-64
2021/08/10 01:44:32;;;;;;;21.05;13.77;;;;;;;22.57;94.13;99478.94;5091720;28;20035;-64
2021/08/10 01:47:07;;;;;;;20.52;14.05;;;;;;;22.59;94.76;99492.91;5076099;28;20044;-64
2021/08/10 01:49:35;;;;;;;22.55;14.35;;;;;;;22.64;94.70;99503.94;5073031;28;20064;-64
2021/08/10 01:52:03;;;;;;;21.23;14.48;;;;;;;22.37;94.94;99458.66;5090948;28;20423;-63
2021/08/10 01:54:30;;;;;;;22.48;15.13;;;;;;;22.32;95.53;99459.03;5066171;28;20855;-63
2021/08/10 01:56:55;;;;;;;24.55;15.07;;;;;;;22.46;95.86;99486.16;5048551;28;20067;-63
2021/08/10 01:59:22;;;;;;;29.65;16.67;;;;;;;22.52;96.16;99486.47;5070458;28;20060;-64
2021/08/10 02:01:51;;;;;;;20.23;14.48;;;;;;;22.39;96.49;99469.97;5053628;28;20484;-64
2021/08/10 02:04:19;;;;;;;19.25;14.00;;;;;;;22.32;96.64;99455.56;5101448;28;20747;-64
2021/08/10 02:06:49;;;;;;;24.83;14.80;;;;;;;22.39;96.95;99478.75;5074053;28;20050;-64
2021/08/10 02:09:18;;;;;;;20.90;14.73;;;;;;;22.27;97.07;99471.84;5056723;28;20043;-65
2021/08/10 02:11:46;;;;;;;21.80;14.23;;;;;;;22.36;97.07;99489.59;5070693;28;20040;-64
2021/08/10 02:14:14;;;;;;;20.77;13.98;;;;;;;22.25;96.94;99467.63;5069964;28;20524;-65
2021/08/10 02:16:40;;;;;;;21.98;15.57;;;;;;;22.25;96.92;99475.59;5070245;28;20040;-64
2021/08/10 02:19:10;;;;;;;24.50;14.40;;;;;;;22.43;97.08;99497.84;5088075;28;20108;-63
2021/08/10 02:21:46;;;;;;;23.00;14.77;;;;;;;22.37;97.39;99499.22;5089889;28;20073;-64
2021/08/10 02:24:32;;;;;;;22.35;14.65;;;;;;;22.39;97.62;99507.91;5089996;28;20043;-64
2021/08/10 02:27:04;;;;;;;22.83;13.93;;;;;;;22.37;97.68;99511.63;5076753;28;20044;-63
2021/08/10 02:29:34;;;;;;;25.70;15.57;;;;;;;22.34;98.24;99518.03;5089148;28;20381;-63
2021/08/10 02:32:02;;;;;;;19.95;14.43;;;;;;;22.28;98.54;99510.63;5090090;28;20091;-62
2021/08/10 02:34:34;;;;;;;27.73;15.57;;;;;;;22.25;99.02;99513.50;5088115;28;20044;-63
2021/08/10 02:37:01;;;;;;;31.60;16.48;;;;;;;22.22;99.43;99505.84;5073167;28;20048;-64
2021/08/10 02:39:29;;;;;;;25.27;16.48;;;;;;;21.84;100.00;99455.25;5073283;28;20130;-64
2021/08/10 02:41:56;;;;;;;29.67;17.13;;;;;;;21.98;100.00;99488.56;5069729;28;20098;-63
2021/08/10 02:44:24;;;;;;;26.13;16.42;;;;;;;22.15;100.00;99512.63;5088995;28;20439;-63
2021/08/10 02:46:50;;;;;;;27.90;15.88;;;;;;;22.13;100.00;99514.56;5090759;28;20036;-64
2021/08/10 02:49:16;;;;;;;28.38;16.15;;;;;;;21.96;100.00;99491.31;5072998;28;20427;-62
2021/08/10 02:51:43;;;;;;;28.50;17.27;;;;;;;22.12;100.00;99514.69;5052335;28;20052;-63
2021/08/10 02:54:09;;;;;;;28.25;16.42;;;;;;;21.99;100.00;99504.28;5072449;28;20096;-63
2021/08/10 02:56:39;;;;;;;26.20;16.83;;;;;;;21.92;100.00;99496.00;5073046;28;20066;-65
2021/08/10 02:59:14;;;;;;;32.40;15.90;;;;;;;22.07;100.00;99525.69;5072876;28;20135;-63
2021/08/10 03:01:45;;;;;;;25.48;16.33;;;;;;;21.91;100.00;99504.06;5071508;28;20585;-63
2021/08/10 03:04:12;;;;;;;25.38;15.85;;;;;;;22.06;100.00;99521.34;5089275;28;20043;-63
2021/08/10 03:06:39;;;;;;;22.08;14.88;;;;;;;22.02;100.00;99524.38;5069835;28;20051;-63
2021/08/10 03:09:11;;;;;;;23.05;15.00;;;;;;;21.96;100.00;99513.34;5072439;28;20123;-63
2021/08/10 03:11:41;;;;;;;26.88;15.65;;;;;;;22.05;100.00;99521.47;5077481;28;20037;-64
2021/08/10 03:14:10;;;;;;;26.92;18.08;;;;;;;21.80;100.00;99482.94;5068442;28;20039;-62
2021/08/10 03:16:37;;;;;;;38.63;29.42;;;;;;;21.99;100.00;99514.88;5045788;28;20035;-63
2021/08/10 03:19:05;;;;;;;70.10;56.97;;;;;;;22.06;100.00;99520.50;5089123;28;20036;-63
2021/08/10 03:21:32;;;;;;;74.05;65.18;;;;;;;22.07;100.00;99528.31;5089259;28;20040;-64
2021/08/10 03:24:00;;;;;;;75.90;62.53;;;;;;;22.08;100.00;99515.94;5072086;28;20130;-62
2021/08/10 03:26:27;;;;;;;75.88;61.10;;;;;;;21.93;100.00;99491.53;5070415;28;20082;-62
2021/08/10 03:28:53;;;;;;;72.20;59.00;;;;;;;21.94;100.00;99495.88;5071904;28;20113;-63
2021/08/10 03:31:20;;;;;;;65.07;50.47;;;;;;;22.06;100.00;99507.25;5068773;28;20088;-63
2021/08/10 03:33:52;;;;;;;50.90;41.92;;;;;;;22.10;100.00;99509.53;5083788;28;20427;-63
2021/08/10 03:36:20;;;;;;;39.03;27.23;;;;;;;22.11;100.00;99507.72;5068435;28;20454;-63
2021/08/10 03:38:46;;;;;;;26.80;19.33;;;;;;;22.01;100.00;99485.63;5047410;28;20055;-64
2021/08/10 03:41:13;;;;;;;32.17;19.92;;;;;;;22.21;100.00;99509.44;5068464;28;20049;-62
2021/08/10 03:43:42;;;;;;;35.00;15.20;;;;;;;22.07;100.00;99482.47;5065348;28;20563;-62
2021/08/10 03:46:08;;;;;;;20.80;15.57;;;;;;;22.24;100.00;99513.66;5075350;28;20124;-63
2021/08/10 03:48:46;;;;;;;30.15;15.43;;;;;;;22.25;100.00;99515.31;5088730;28;20036;-63
2021/08/10 03:51:15;;;;;;;18.30;14.88;;;;;;;22.34;100.00;99520.69;5069634;28;20127;-63
2021/08/10 03:53:43;;;;;;;21.80;14.25;;;;;;;22.25;99.54;99494.97;5080278;28;20110;-63
2021/08/10 03:56:10;;;;;;;21.20;15.27;;;;;;;22.39;99.62;99510.53;5090032;28;20932;-64
2021/08/10 03:58:41;;;;;;;21.52;13.45;;;;;;;22.23;99.49;99486.34;5072158;28;20060;-63
2021/08/10 04:01:10;;;;;;;16.73;14.50;;;;;;;22.17;98.91;99465.66;5071946;28;20036;-63
2021/08/10 04:03:40;;;;;;;23.40;14.52;;;;;;;22.28;98.23;99467.41;5071711;28;20103;-64
2021/08/10 04:06:06;;;;;;;21.05;14.02;;;;;;;22.52;97.83;99510.31;5088785;28;20415;-64
2021/08/10 04:08:32;;;;;;;23.70;15.07;;;;;;;22.42;97.27;99482.94;5088359;28;20052;-63
2021/08/10 04:11:00;;;;;;;24.27;13.57;;;;;;;22.66;96.55;99515.25;5068448;28;20049;-64
2021/08/10 04:13:32;;;;;;;21.08;14.85;;;;;;;22.67;96.01;99508.13;5068481;28;20051;-64
2021/08/10 04:16:01;;;;;;;20.27;14.73;;;;;;;22.56;95.59;99487.88;5082216;28;20636;-64
2021/08/10 04:18:28;;;;;;;20.33;14.07;;;;;;;22.66;95.15;99495.88;5069197;28;20503;-65
2021/08/10 04:20:54;;;;;;;21.23;14.02;;;;;;;22.78;94.97;99505.41;5054860;28;20060;-62
2021/08/10 04:23:22;;;;;;;20.23;13.48;;;;;;;22.74;94.73;99502.22;5086424;28;20044;-63
2021/08/10 04:25:48;;;;;;;18.40;14.50;;;;;;;22.93;93.96;99508.53;5087980;28;20507;-63
2021/08/10 04:28:16;;;;;;;24.48;15.07;;;;;;;22.98;93.68;99514.25;5071186;28;20036;-62
2021/08/10 04:30:43;;;;;;;30.50;17.95;;;;;;;22.90;93.09;99479.66;5078850;28;20040;-63
2021/08/10 04:33:10;;;;;;;30.33;17.42;;;;;;;23.11;92.54;99505.09;5075529;28;20089;-63
2021/08/10 04:35:36;;;;;;;30.00;15.10;;;;;;;23.17;91.18;99509.88;5089210;28;21270;-64
2021/08/10 04:38:02;;;;;;;21.02;14.10;;;;;;;23.09;89.86;99485.81;5089416;28;20124;-64
2021/08/10 04:40:29;;;;;;;23.67;15.68;;;;;;;23.19;89.47;99485.84;5088302;28;20036;-63
2021/08/10 04:43:10;;;;;;;19.05;14.35;;;;;;;23.35;88.91;99498.56;5089586;28;20066;-63
2021/08/10 04:45:40;;;;;;;31.50;14.23;;;;;;;23.41;88.81;99492.72;5071424;28;20064;-63
2021/08/10 04:48:08;;;;;;;21.85;14.35;;;;;;;23.51;88.43;99496.25;5088162;28;20569;-63
2021/08/10 04:50:42;;;;;;;20.45;13.85;;;;;;;23.58;86.89;99505.34;5088981;28;20051;-65
2021/08/10 04:53:13;;;;;;;18.65;13.57;;;;;;;23.66;84.80;99494.03;5087556;28;20043;-64
2021/08/10 04:55:39;;;;;;;20.83;13.90;;;;;;;23.70;83.30;99479.50;5087621;28;20126;-63
2021/08/10 04:58:05;;;;;;;32.50;14.20;;;;;;;23.93;82.80;99492.31;5088036;28;20169;-65
2021/08/10 05:00:33;;;;;;;25.90;14.10;;;;;;;24.14;81.72;99492.13;5088187;28;20043;-64
2021/08/10 05:03:00;;;;;;;23.98;13.52;;;;;;;24.23;79.45;99466.56;5087462;28;20044;-65
2021/08/10 05:05:26;;;;;;;29.17;15.98;;;;;;;24.57;77.05;99483.63;5087368;28;20073;-62
2021/08/10 05:07:55;;;;;;;23.80;14.27;;;;;;;24.67;76.44;99472.97;5071198;28;20043;-63
2021/08/10 05:10:21;;;;;;;20.95;13.63;;;;;;;24.73;75.45;99475.03;5087022;28;20040;-62
2021/08/10 05:12:49;;;;;;;21.27;13.18;;;;;;;24.82;74.87;99474.97;5085774;28;20074;-62
2021/08/10 05:15:20;;;;;;;23.77;13.57;;;;;;;24.86;74.84;99456.91;5084819;28;20093;-62
2021/08/10 05:17:46;;;;;;;20.15;13.27;;;;;;;24.97;74.82;99447.91;5092356;28;20094;-61
2021/08/10 05:20:13;;;;;;;20.42;13.07;;;;;;;24.97;73.98;99421.28;5091340;28;20113;-61
2021/08/10 05:22:41;;;;;;;22.65;13.00;;;;;;;25.40;72.80;99449.84;5091312;28;20039;-62
2021/08/10 05:25:08;;;;;;;23.60;13.57;;;;;;;25.73;71.56;99459.81;5090551;28;20040;-66
2021/08/10 05:27:36;;;;;;;21.20;12.48;;;;;;;25.91;70.06;99457.13;5101897;28;20075;-63
2021/08/10 05:30:05;;;;;;;30.88;14.02;;;;;;;26.07;69.00;99468.72;5096376;28;20076;-61
2021/08/10 05:32:31;;;;;;;17.70;13.70;;;;;;;26.23;68.52;99459.19;5092555;28;20146;-61
2021/08/10 05:34:58;;;;;;;22.40;12.55;;;;;;;26.36;68.28;99463.09;5093660;28;20044;-49
2021/08/10 05:37:25;;;;;;;18.90;12.80;;;;;;;26.50;66.63;99465.16;5090625;28;20040;-49
2021/08/10 05:39:50;;;;;;;20.92;11.50;;;;;;;26.56;65.73;99461.03;5091330;28;20040;-51
2021/08/10 05:42:16;;;;;;;21.17;12.35;;;;;;;26.59;64.36;99460.69;5091084;28;20048;-47
2021/08/10 05:44:42;;;;;;;22.23;13.38;;;;;;;26.52;63.70;99441.84;5091495;28;20667;-50
2021/08/10 05:47:10;;;;;;;29.23;13.40;;;;;;;26.68;63.21;99465.09;5084870;28;20480;-50
2021/08/10 05:49:38;;;;;;;24.00;12.55;;;;;;;26.70;63.24;99467.56;5091230;28;20046;-57
2021/08/10 05:52:05;;;;;;;17.25;12.15;;;;;;;26.70;63.10;99465.75;5085881;28;20032;-51
2021/08/10 05:54:32;;;;;;;20.25;11.52;;;;;;;26.76;63.00;99462.44;5090411;28;20047;-52
2021/08/10 05:56:58;;;;;;;19.55;11.88;;;;;;;26.86;63.54;99463.16;5090607;28;20036;-48
2021/08/10 05:59:24;;;;;;;25.75;11.80;;;;;;;27.06;63.21;99461.06;5091094;28;20105;-53
2021/08/10 06:01:53;;;;;;;;;;;;;;;27.21;63.00;99454.09;5090848;28;20101;-51
2021/08/10 06:04:19;;;;;;;22.33;11.57;;;;;;;27.32;61.75;99453.75;5090508;28;19916;-51
2021/08/10 06:06:46;;;;;;;18.48;13.80;;;;;;;27.40;61.24;99448.44;5070349;28;20454;-54
2021/08/10 06:09:11;;;;;;;17.70;11.15;;;;;;;27.51;59.02;99451.81;5087169;28;20051;-51
2021/08/10 06:11:39;;;;;;;17.58;10.60;;;;;;;27.61;58.08;99447.16;5090816;28;20088;-54
2021/08/10 06:14:08;;;;;;;18.25;10.95;;;;;;;27.71;57.57;99451.31;5090598;28;20093;-50
2021/08/10 06:16:38;;;;;;;21.48;10.52;;;;;;;27.89;56.85;99451.16;5068075;28;20083;-53
2021/08/10 06:19:12;;;;;;;20.88;10.88;;;;;;;27.99;56.45;99451.81;5068096;28;20677;-52
2021/08/10 06:21:38;;;;;;;16.33;11.07;;;;;;;28.08;56.16;99460.63;5069370;28;20037;-53
2021/08/10 06:24:05;;;;;;;23.13;10.50;;;;;;;28.14;56.67;99460.00;5070732;28;20048;-53
2021/08/10 06:26:33;;;;;;;16.08;10.85;;;;;;;28.29;56.67;99454.78;5074241;28;20036;-52
2021/08/10 06:28:59;;;;;;;19.70;10.32;;;;;;;28.45;55.83;99457.41;5090671;28;20056;-53
2021/08/10 06:31:25;;;;;;;17.70;10.82;;;;;;;28.47;55.25;99458.09;5073633;28;20115;-51
2021/08/10 06:33:52;;;;;;;20.55;12.45;;;;;;;28.42;55.04;99468.47;5090583;28;20044;-51
2021/08/10 06:36:22;;;;;;;23.10;11.23;;;;;;;28.32;55.32;99457.94;5090414;28;20085;-51
2021/08/10 06:38:48;;;;;;;18.67;10.57;;;;;;;28.22;56.03;99447.44;5073795;28;20040;-52
2021/08/10 06:41:14;;;;;;;22.88;11.32;;;;;;;28.68;54.51;99452.97;5090590;28;20535;-50
2021/08/10 06:43:56;;;;;;;23.40;11.30;;;;;;;29.64;51.64;99458.78;5090575;28;20051;-54
2021/08/10 06:46:26;;;;;;;;;;;;;;;30.41;50.46;99463.94;5090661;28;20036;-52
2021/08/10 06:48:55;;;;;;;20.23;11.18;;;;;;;31.23;48.54;99460.06;5090326;28;19915;-53
2021/08/10 06:51:26;;;;;;;19.35;10.93;;;;;;;31.61;47.85;99447.25;5073461;28;20040;-53
2021/08/10 06:53:52;;;;;;;20.95;10.65;;;;;;;33.23;43.97;99462.97;5090503;28;20331;-53
2021/08/10 06:56:18;;;;;;;21.50;11.35;;;;;;;34.62;41.17;99471.88;5090161;28;20123;-55
2021/08/10 06:58:45;;;;;;;18.98;11.02;;;;;;;35.71;38.57;99471.78;5089634;28;20078;-53
2021/08/10 07:01:10;;;;;;;18.80;10.80;;;;;;;36.63;37.22;99477.19;5091663;28;20477;-54
2021/08/10 07:03:39;;;;;;;20.65;10.93;;;;;;;36.70;36.15;99475.22;5090411;28;20127;-54
2021/08/10 07:06:05;;;;;;;22.98;12.27;;;;;;;35.70;37.61;99467.44;5084390;28;20489;-53
2021/08/10 07:08:38;;;;;;;27.98;13.75;;;;;;;35.32;38.55;99468.28;5089753;28;20523;-53
2021/08/10 07:11:05;;;;;;;25.38;11.88;;;;;;;34.85;39.56;99469.53;5090141;28;20104;-53
2021/08/10 07:13:35;;;;;;;23.63;12.38;;;;;;;34.20;40.23;99465.94;5073743;28;20040;-53
2021/08/10 07:16:02;;;;;;;29.48;12.85;;;;;;;33.49;41.78;99457.63;5087956;28;20640;-54
2021/08/10 07:18:29;;;;;;;23.40;11.13;;;;;;;32.94;42.72;99463.25;5089520;28;20044;-54
2021/08/10 07:20:57;;;;;;;24.13;12.90;;;;;;;32.60;43.76;99454.19;5089145;28;20036;-50
2021/08/10 07:23:25;;;;;;;20.25;10.48;;;;;;;34.73;39.15;99461.28;5083358;28;20422;-51
2021/08/10 07:25:52;;;;;;;14.05;10.40;;;;;;;36.28;36.13;99460.66;5089683;28;20044;-50
2021/08/10 07:28:23;;;;;;;20.40;9.90;;;;;;;37.78;33.08;99471.69;5089384;28;20155;-54
2021/08/10 07:30:51;;;;;;;19.70;10.68;;;;;;;38.94;31.38;99474.38;5089450;28;20119;-52
2021/08/10 07:33:17;;;;;;;17.95;10.20;;;;;;;39.87;29.85;99454.88;5089376;28;20047;-53
2021/08/10 07:35:45;;;;;;;21.90;10.88;;;;;;;40.85;28.83;99481.34;5089096;28;20043;-54
2021/08/10 07:38:13;;;;;;;17.98;9.75;;;;;;;41.99;27.19;99485.78;5088651;28;20461;-54
2021/08/10 07:40:40;;;;;;;33.33;11.80;;;;;;;42.86;25.75;99485.25;5089335;28;20036;-52
2021/08/10 07:43:06;;;;;;;12.25;9.80;;;;;;;43.25;25.41;99475.53;5089442;28;20047;-54
2021/08/10 07:45:39;;;;;;;18.90;10.93;;;;;;;43.22;25.14;99467.88;5090126;28;20039;-53
2021/08/10 07:48:09;;;;;;;36.08;12.73;;;;;;;43.55;24.49;99461.06;5089289;28;20529;-54
2021/08/10 07:50:37;;;;;;;14.07;9.73;;;;;;;44.20;24.17;99464.88;5089381;28;20044;-52
2021/08/10 07:53:03;;;;;;;14.48;9.55;;;;;;;44.67;23.72;99465.31;5089158;28;20048;-54
2021/08/10 07:55:29;;;;;;;10.75;9.07;;;;;;;45.20;22.69;99462.03;5090481;28;20039;-51
2021/08/10 07:57:56;;;;;;;14.73;9.73;;;;;;;45.63;22.41;99463.13;5088833;28;20055;-54
2021/08/10 08:00:22;;;;;;;16.58;10.38;;;;;;;45.86;21.53;99460.44;5087033;28;20142;-52
2021/08/10 08:02:48;;;;;;;12.98;10.20;;;;;;;45.89;21.85;99448.91;5068366;28;20044;-52
2021/08/10 08:05:14;;;;;;;12.80;8.80;;;;;;;45.91;21.99;99443.09;5069977;28;20169;-53
2021/08/10 08:07:40;;;;;;;18.02;11.23;;;;;;;45.99;21.12;99449.91;5084791;28;20149;-50
2021/08/10 08:10:09;;;;;;;12.23;10.32;;;;;;;45.95;21.48;99446.91;5088907;28;20042;-53
2021/08/10 08:12:35;;;;;;;13.27;9.20;;;;;;;46.03;21.39;99446.28;5088923;28;20133;-52
2021/08/10 08:15:02;;;;;;;13.13;9.50;;;;;;;46.12;21.52;99440.94;5070030;28;20312;-52
2021/08/10 08:17:29;;;;;;;;;;;;;;;46.10;21.65;99441.25;5073444;28;20143;-52
2021/08/10 08:19:54;;;;;;;25.05;12.57;;;;;;;46.33;20.95;99442.38;5068624;28;20011;-53
2021/08/10 08:22:20;;;;;;;10.15;8.52;;;;;;;46.53;20.80;99428.41;5068305;28;20072;-54
2021/08/10 08:24:46;;;;;;;12.68;8.77;;;;;;;46.64;20.74;99412.63;5068745;28;20171;-52
2021/08/10 08:27:12;;;;;;;15.25;9.15;;;;;;;46.97;20.44;99432.81;5078557;28;20044;-48
2021/08/10 08:29:39;;;;;;;15.93;10.18;;;;;;;46.83;20.08;99434.63;5088661;28;20047;-55
2021/08/10 08:32:07;;;;;;;15.63;10.18;;;;;;;46.90;20.14;99418.56;5088623;28;20051;-51
2021/08/10 08:34:35;;;;;;;13.50;8.40;;;;;;;47.01;20.19;99414.56;5088700;28;20097;-50
2021/08/10 08:37:01;;;;;;;14.38;9.23;;;;;;;46.98;20.20;99421.50;5088355;28;20511;-52
2021/08/10 08:39:30;;;;;;;10.25;8.55;;;;;;;46.91;20.33;99417.47;5088277;28;20498;-52
2021/08/10 08:42:03;;;;;;;17.30;9.95;;;;;;;47.02;19.81;99411.50;5088555;28;21593;-54
2021/08/10 08:44:36;;;;;;;10.45;9.43;;;;;;;46.91;20.25;99410.03;5071956;28;20055;-53
2021/08/10 08:47:06;;;;;;;14.60;8.70;;;;;;;46.67;20.25;99421.09;5088013;28;20044;-53
2021/08/10 08:49:35;;;;;;;18.27;10.40;;;;;;;46.45;20.12;99403.47;5074094;28;20055;-53
2021/08/10 08:52:02;;;;;;;14.60;9.68;;;;;;;46.31;20.38;99419.88;5092456;28;20074;-53
2021/08/10 08:54:32;;;;;;;10.55;8.77;;;;;;;45.43;21.23;99404.50;5092706;28;20044;-51
2021/08/10 08:56:59;;;;;;;10.13;7.40;;;;;;;44.39;22.40;99394.63;5057797;28;20036;-53
2021/08/10 08:59:25;;;;;;;8.75;7.82;;;;;;;43.23;23.82;99394.78;5093172;28;20086;-53
2021/08/10 09:01:53;;;;;;;12.50;8.75;;;;;;;42.86;24.14;99397.72;5092461;28;20067;-53
2021/08/10 09:04:21;;;;;;;10.65;7.85;;;;;;;43.38;23.68;99394.78;5092304;28;20040;-54
2021/08/10 09:06:55;;;;;;;10.75;7.65;;;;;;;44.31;22.58;99398.81;5091806;28;20036;-52
2021/08/10 09:09:29;;;;;;;11.17;8.40;;;;;;;44.68;22.35;99401.13;5092402;28;20051;-51
2021/08/10 09:12:11;;;;;;;13.18;7.82;;;;;;;43.89;22.83;99382.72;5092200;28;20052;-51
2021/08/10 09:14:56;;;;;;;10.13;7.50;;;;;;;42.65;23.99;99389.44;5090004;28;20036;-49
2021/08/10 09:17:28;;;;;;;16.70;9.30;;;;;;;41.80;24.55;99387.03;5084545;28;20059;-54
2021/08/10 09:20:07;;;;;;;13.07;7.38;;;;;;;41.62;25.03;99393.72;5092093;28;20040;-52
2021/08/10 09:22:42;;;;;;;14.68;8.73;;;;;;;41.05;26.06;99385.31;5091746;28;20419;-51
2021/08/10 09:25:17;;;;;;;16.70;9.20;;;;;;;40.80;25.50;99385.03;5091802;28;20036;-52
2021/08/10 09:27:47;;;;;;;12.82;7.55;;;;;;;40.76;26.19;99378.44;5087020;28;20499;-54
2021/08/10 09:30:25;;;;;;;11.13;8.05;;;;;;;40.26;27.30;99382.16;5074413;28;20040;-52
2021/08/10 09:32:58;;;;;;;;;;;;;;;41.06;25.92;99380.66;5092365;28;20039;-51
2021/08/10 09:35:37;;;;;;;13.35;7.55;;;;;;;42.02;25.08;99368.63;5091375;28;19922;-52
2021/08/10 09:38:09;;;;;;;13.85;7.80;;;;;;;42.41;24.61;99368.28;5091060;28;20051;-52
2021/08/10 09:40:45;;;;;;;11.75;7.75;;;;;;;42.39;24.86;99365.81;5091729;28;20044;-55
2021/08/10 09:43:35;;;;;;;13.38;7.72;;;;;;;42.33;24.43;99366.88;5085120;28;20051;-49
2021/08/10 09:46:15;;;;;;;14.55;7.93;;;;;;;42.74;24.19;99378.81;5087861;28;20040;-53
2021/08/10 09:48:48;;;;;;;10.73;7.32;;;;;;;43.23;23.70;99370.97;5072340;28;20146;-54
2021/08/10 09:51:17;;;;;;;9.73;8.00;;;;;;;43.72;23.26;99373.13;5071207;28;20094;-54
2021/08/10 09:53:53;;;;;;;14.15;8.50;;;;;;;44.38;21.54;99373.84;5072282;28;20045;-50
2021/08/10 09:56:19;;;;;;;18.27;9.15;;;;;;;45.06;20.84;99374.03;5091436;28;20126;-50
2021/08/10 09:59:15;;;;;;;9.73;7.50;;;;;;;45.84;20.50;99371.19;5074351;28;20072;-53
2021/08/10 10:01:43;;;;;;;9.52;8.23;;;;;;;46.44;19.91;99374.31;5072502;28;20052;-52
2021/08/10 10:04:18;;;;;;;10.18;8.35;;;;;;;46.66;19.33;99377.34;5091694;28;20051;-52
2021/08/10 10:06:51;;;;;;;11.25;7.90;;;;;;;46.99;19.42;99378.25;5090188;28;20073;-53
2021/08/10 10:09:18;;;;;;;12.68;8.18;;;;;;;46.89;19.43;99384.72;5092355;28;20043;-52
2021/08/10 10:11:47;;;;;;;10.48;6.63;;;;;;;46.89;19.50;99392.16;5091127;28;20400;-54
2021/08/10 10:14:14;;;;;;;12.65;8.00;;;;;;;45.40;19.12;99395.97;5090695;28;20511;-53
2021/08/10 10:16:42;;;;;;;15.35;9.32;;;;;;;44.57;20.20;99380.31;5089791;28;20094;-51
2021/08/10 10:19:11;;;;;;;19.45;9.63;;;;;;;45.04;19.53;99395.44;5091969;28;20067;-52
2021/08/10 10:21:58;;;;;;;16.75;8.70;;;;;;;45.62;19.47;99387.31;5090632;28;20067;-53
2021/08/10 10:24:25;;;;;;;12.73;8.98;;;;;;;45.35;19.46;99385.03;5091204;28;20467;-54
2021/08/10 10:27:05;;;;;;;12.02;8.60;;;;;;;45.67;19.52;99392.75;5092074;28;20111;-53
2021/08/10 10:29:32;;;;;;;11.77;8.15;;;;;;;45.32;18.85;99386.44;5091097;28;20040;-53
2021/08/10 10:31:59;;;;;;;12.80;8.63;;;;;;;44.67;20.12;99382.19;5090580;28;20048;-54
2021/08/10 10:34:25;;;;;;;12.40;8.15;;;;;;;44.35;20.37;99379.03;5091599;28;20147;-53
2021/08/10 10:37:06;;;;;;;13.50;8.70;;;;;;;42.78;21.68;99379.06;5091567;28;20515;-52
2021/08/10 10:39:59;;;;;;;24.98;9.43;;;;;;;41.38;23.26;99381.50;5076874;28;20143;-50
2021/08/10 10:42:25;;;;;;;13.18;8.30;;;;;;;40.68;24.12;99379.69;5090196;28;20464;-52
2021/08/10 10:45:34;;;;;;;16.55;8.30;;;;;;;40.48;24.45;99380.28;5079576;28;20044;-53
2021/08/10 10:48:32;;;;;;;14.63;8.85;;;;;;;39.70;25.60;99384.06;5068360;28;20093;-53
2021/08/10 10:51:13;;;;;;;18.30;9.10;;;;;;;38.81;27.22;99382.19;5084486;28;20047;-54
2021/08/10 10:53:40;;;;;;;17.30;8.35;;;;;;;38.66;27.64;99373.75;5073916;28;20044;-51
2021/08/10 10:56:24;;;;;;;19.25;10.20;;;;;;;38.66;28.09;99381.88;5091246;28;20031;-53
2021/08/10 10:58:50;;;;;;;11.38;8.40;;;;;;;39.20;27.48;99377.75;5091334;28;20096;-49
2021/08/10 11:01:19;;;;;;;13.20;8.23;;;;;;;40.32;26.26;99388.50;5091274;28;20143;-52
2021/08/10 11:04:03;;;;;;;16.80;9.55;;;;;;;40.76;24.89;99395.63;5089429;28;20051;-51
2021/08/10 11:06:46;;;;;;;16.23;8.02;;;;;;;39.71;25.98;99398.50;5090877;28;20063;-52
2021/08/10 11:09:36;;;;;;;12.38;7.55;;;;;;;38.59;27.26;99384.75;5091019;28;20093;-50
2021/08/10 11:12:23;;;;;;;18.23;8.18;;;;;;;38.40;27.20;99373.22;5090903;28;20067;-52
2021/08/10 11:14:49;;;;;;;10.75;7.38;;;;;;;37.86;27.31;99388.00;5077654;28;20056;-51
2021/08/10 11:17:15;;;;;;;19.58;7.70;;;;;;;36.78;28.87;99390.09;5090772;28;20047;-54
2021/08/10 11:19:43;;;;;;;16.65;8.32;;;;;;;36.11;30.18;99386.47;5090986;28;20071;-53
2021/08/10 11:22:14;;;;;;;14.68;7.45;;;;;;;36.05;31.10;99390.09;5090837;28;20426;-50
2021/08/10 11:24:43;;;;;;;17.27;8.43;;;;;;;36.07;30.19;99396.06;5090600;28;20071;-50
2021/08/10 11:27:48;;;;;;;11.10;7.13;;;;;;;35.26;31.47;99391.59;5090640;28;20427;-52
2021/08/10 11:30:20;;;;;;;17.52;7.53;;;;;;;34.47;32.94;99391.13;5028044;28;20045;-51
2021/08/10 11:32:48;;;;;;;13.40;7.43;;;;;;;33.78;34.01;99399.75;5028193;28;20051;-55